createdAt,value
2019-04-29T00:02:35.721Z,2.60
2019-04-29T00:05:04.804Z,2.80
2019-04-29T00:07:32.288Z,1.67
2019-04-29T00:09:59.878Z,1.43
2019-04-29T00:12:30.082Z,1.87
2019-04-29T00:15:26.096Z,1.23
2019-04-29T00:17:58.154Z,1.70
2019-04-29T00:20:42.220Z,2.63
2019-04-29T00:23:09.712Z,1.87
2019-04-29T00:25:37.250Z,2.43
2019-04-29T00:28:04.709Z,2.73
2019-04-29T00:30:32.452Z,3.10
2019-04-29T00:33:00.030Z,2.50
2019-04-29T00:35:27.809Z,1.93
2019-04-29T00:38:21.869Z,4.60
2019-04-29T00:41:07.548Z,1.97
2019-04-29T00:43:54.551Z,4.70
2019-04-29T00:46:22.238Z,1.67
2019-04-29T00:48:49.751Z,2.20
2019-04-29T00:51:17.276Z,1.70
2019-04-29T00:53:45.735Z,2.73
2019-04-29T00:56:13.203Z,4.10
2019-04-29T00:58:40.633Z,7.33
2019-04-29T01:01:13.267Z,2.90
2019-04-29T01:03:41.250Z,3.00
2019-04-29T01:06:09.002Z,3.43
2019-04-29T01:08:38.207Z,2.40
2019-04-29T01:11:05.816Z,2.33
2019-04-29T01:13:33.282Z,3.17
2019-04-29T01:16:00.682Z,2.30
2019-04-29T01:18:28.157Z,3.13
2019-04-29T01:20:55.704Z,4.60
2019-04-29T01:23:23.133Z,2.23
2019-04-29T01:25:54.536Z,4.07
2019-04-29T01:28:28.855Z,3.70
2019-04-29T01:31:02.659Z,2.23
2019-04-29T01:33:30.261Z,2.43
2019-04-29T01:36:15.940Z,3.83
2019-04-29T01:38:43.504Z,3.23
2019-04-29T01:41:15.627Z,3.60
2019-04-29T01:43:59.522Z,3.63
2019-04-29T01:46:27.086Z,3.10
2019-04-29T01:48:54.545Z,5.07
2019-04-29T01:51:22.062Z,3.50
2019-04-29T01:53:49.563Z,4.20
2019-04-29T01:56:17.106Z,5.17
2019-04-29T01:58:44.524Z,7.60
2019-04-29T02:01:12.028Z,7.50
2019-04-29T02:03:39.457Z,7.03
2019-04-29T02:06:07.037Z,8.43
2019-04-29T02:08:34.528Z,5.67
2019-04-29T02:11:02.034Z,6.10
2019-04-29T02:13:29.506Z,5.87
2019-04-29T02:15:56.971Z,5.93
2019-04-29T02:18:24.460Z,6.97
2019-04-29T02:20:51.914Z,10.60
2019-04-29T02:23:34.523Z,6.13
2019-04-29T02:26:02.009Z,8.17
2019-04-29T02:28:29.419Z,4.87
2019-04-29T02:30:58.984Z,6.80
2019-04-29T02:33:26.726Z,4.30
2019-04-29T02:35:54.161Z,5.83
2019-04-29T02:38:45.983Z,6.30
2019-04-29T02:41:44.662Z,6.03
2019-04-29T02:44:12.835Z,6.77
2019-04-29T02:46:40.341Z,7.00
2019-04-29T02:49:07.815Z,9.67
2019-04-29T02:51:50.878Z,9.93
2019-04-29T02:54:18.391Z,8.10
2019-04-29T02:56:50.910Z,4.27
2019-04-29T02:59:22.024Z,2.40
2019-04-29T03:02:00.630Z,2.83
2019-04-29T03:04:30.932Z,3.43
2019-04-29T03:06:58.654Z,4.17
2019-04-29T03:09:26.121Z,2.43
2019-04-29T03:11:53.643Z,2.60
2019-04-29T03:14:21.026Z,3.37
2019-04-29T03:16:48.789Z,3.17
2019-04-29T03:19:22.152Z,3.27
2019-04-29T03:21:55.810Z,4.60
2019-04-29T03:24:23.405Z,3.73
2019-04-29T03:26:50.876Z,3.10
2019-04-29T03:29:24.503Z,4.80
2019-04-29T03:31:53.558Z,4.93
2019-04-29T03:34:21.089Z,2.80
2019-04-29T03:36:48.632Z,4.07
2019-04-29T03:39:16.277Z,4.60
2019-04-29T03:41:43.741Z,2.43
2019-04-29T03:44:11.249Z,2.10
2019-04-29T03:46:38.890Z,3.00
2019-04-29T03:49:06.413Z,4.30
2019-04-29T03:51:33.942Z,2.77
2019-04-29T03:54:01.586Z,3.60
2019-04-29T03:56:29.102Z,2.40
2019-04-29T03:58:56.582Z,2.17
2019-04-29T04:01:46.244Z,2.70
2019-04-29T04:04:21.605Z,3.37
2019-04-29T04:06:56.604Z,2.83
2019-04-29T04:09:27.586Z,2.53
2019-04-29T04:11:55.147Z,2.70
2019-04-29T04:14:22.569Z,2.10
2019-04-29T04:17:19.958Z,2.30
2019-04-29T04:19:45.673Z,3.63
2019-04-29T04:22:13.106Z,2.70
2019-04-29T04:24:40.680Z,1.90
2019-04-29T04:27:08.244Z,2.13
2019-04-29T04:29:35.727Z,4.17
2019-04-29T04:32:03.502Z,3.63
2019-04-29T04:34:30.972Z,2.90
2019-04-29T04:37:00.426Z,3.20
2019-04-29T04:39:29.718Z,2.30
2019-04-29T04:41:57.143Z,5.00
2019-04-29T04:44:44.235Z,2.23
2019-04-29T04:47:11.692Z,3.23
2019-04-29T04:49:39.194Z,3.20
2019-04-29T04:52:06.631Z,5.83
2019-04-29T04:54:34.225Z,10.37
2019-04-29T04:57:01.754Z,4.07
2019-04-29T04:59:29.161Z,3.13
2019-04-29T05:01:56.642Z,5.47
2019-04-29T05:04:24.078Z,2.93
2019-04-29T05:06:51.549Z,3.87
2019-04-29T05:09:19.037Z,4.13
2019-04-29T05:11:46.666Z,4.03
2019-04-29T05:14:14.138Z,5.70
2019-04-29T05:16:41.717Z,7.73
2019-04-29T05:19:09.173Z,8.03
2019-04-29T05:21:36.593Z,3.73
2019-04-29T05:24:04.099Z,3.83
2019-04-29T05:26:31.560Z,5.30
2019-04-29T05:28:59.004Z,6.07
2019-04-29T05:31:26.590Z,6.23
2019-04-29T05:33:54.035Z,5.27
2019-04-29T05:36:41.013Z,4.37
2019-04-29T05:39:27.240Z,4.93
2019-04-29T05:41:54.750Z,5.53
2019-04-29T05:44:37.200Z,5.07
2019-04-29T05:47:12.457Z,7.47
2019-04-29T05:49:45.154Z,4.57
2019-04-29T05:52:22.422Z,4.90
2019-04-29T05:54:49.997Z,4.73
2019-04-29T05:57:20.368Z,3.63
2019-04-29T05:59:47.874Z,4.90
2019-04-29T06:02:16.305Z,3.43
2019-04-29T06:04:43.797Z,4.13
2019-04-29T06:07:11.224Z,4.33
2019-04-29T06:09:38.680Z,4.70
2019-04-29T06:12:06.279Z,4.23
2019-04-29T06:14:33.934Z,4.70
2019-04-29T06:17:03.063Z,5.30
2019-04-29T06:19:30.803Z,4.70
2019-04-29T06:21:58.235Z,4.30
2019-04-29T06:24:25.723Z,3.97
2019-04-29T06:26:53.761Z,3.20
2019-04-29T06:29:21.218Z,5.63
2019-04-29T06:31:48.694Z,4.13
2019-04-29T06:34:16.130Z,5.77
2019-04-29T06:36:43.625Z,4.77
2019-04-29T06:39:12.211Z,5.47
2019-04-29T06:41:40.517Z,4.30
2019-04-29T06:44:15.909Z,7.70
2019-04-29T06:46:38.572Z,5.83
2019-04-29T06:49:10.531Z,5.93
2019-04-29T06:51:35.461Z,8.83
2019-04-29T06:54:03.174Z,8.13
2019-04-29T06:56:30.624Z,5.37
2019-04-29T06:58:58.373Z,6.00
2019-04-29T07:01:25.897Z,6.73
2019-04-29T07:03:55.861Z,5.13
2019-04-29T07:06:22.760Z,6.90
2019-04-29T07:08:50.260Z,5.40
2019-04-29T07:11:17.768Z,5.13
2019-04-29T07:13:46.738Z,5.63
2019-04-29T07:16:16.990Z,11.03
2019-04-29T07:18:48.166Z,5.83
2019-04-29T07:21:13.584Z,6.10
2019-04-29T07:23:41.008Z,8.40
2019-04-29T07:26:08.507Z,6.17
2019-04-29T07:28:35.962Z,6.87
2019-04-29T07:31:03.880Z,6.17
2019-04-29T07:33:31.326Z,6.47
2019-04-29T07:36:10.349Z,4.70
2019-04-29T07:38:40.735Z,4.30
2019-04-29T07:40:57.673Z,6.50
2019-04-29T07:43:25.239Z,5.90
2019-04-29T07:46:12.188Z,6.10
2019-04-29T07:48:42.000Z,4.73
2019-04-29T07:51:09.043Z,5.00
2019-04-29T07:53:44.750Z,5.20
2019-04-29T07:56:06.784Z,8.93
2019-04-29T07:58:35.331Z,5.17
2019-04-29T08:01:02.937Z,6.90
2019-04-29T08:03:30.710Z,4.77
2019-04-29T08:05:58.540Z,6.57
2019-04-29T08:08:28.636Z,4.57
2019-04-29T08:10:56.805Z,4.37
2019-04-29T08:13:25.625Z,5.73
2019-04-29T08:15:52.979Z,5.17
2019-04-29T08:18:20.530Z,7.50
2019-04-29T08:20:47.988Z,4.20
2019-04-29T08:23:15.387Z,6.30
2019-04-29T08:25:42.849Z,4.70
2019-04-29T08:28:10.293Z,4.73
2019-04-29T08:30:41.480Z,5.33
2019-04-29T08:33:11.848Z,4.27
2019-04-29T08:35:38.142Z,4.33
2019-04-29T08:38:05.646Z,6.37
2019-04-29T08:40:34.305Z,4.10
2019-04-29T08:43:27.431Z,4.87
2019-04-29T08:46:04.620Z,4.90
2019-04-29T08:48:32.044Z,4.33
2019-04-29T08:50:59.483Z,3.80
2019-04-29T08:53:26.948Z,4.03
2019-04-29T08:55:54.474Z,5.33
2019-04-29T08:58:21.900Z,4.10
2019-04-29T09:00:51.342Z,3.37
2019-04-29T09:03:23.260Z,3.83
2019-04-29T09:06:04.449Z,3.87
2019-04-29T09:08:17.428Z,6.03
2019-04-29T09:10:44.966Z,3.87
2019-04-29T09:13:12.503Z,3.30
2019-04-29T09:15:39.947Z,4.43
2019-04-29T09:18:07.436Z,4.33
2019-04-29T09:20:35.001Z,3.57
2019-04-29T09:23:08.208Z,3.10
2019-04-29T09:26:02.982Z,3.73
2019-04-29T09:28:29.742Z,3.60
2019-04-29T09:30:57.247Z,4.17
2019-04-29T09:33:24.912Z,3.93
2019-04-29T09:35:52.429Z,6.17
2019-04-29T09:38:19.875Z,4.10
2019-04-29T09:40:54.639Z,5.00
2019-04-29T09:43:51.260Z,2.70
2019-04-29T09:46:25.626Z,3.40
2019-04-29T09:48:53.064Z,4.60
2019-04-29T09:51:22.810Z,4.70
2019-04-29T09:53:49.773Z,3.63
2019-04-29T09:56:17.575Z,3.03
2019-04-29T09:58:45.059Z,1.77
2019-04-29T10:01:35.705Z,2.00
2019-04-29T10:04:35.285Z,3.73
2019-04-29T10:07:04.807Z,2.60
2019-04-29T10:09:32.273Z,4.20
2019-04-29T10:11:59.691Z,3.33
2019-04-29T10:14:27.257Z,5.37
2019-04-29T10:17:11.228Z,2.73
2019-04-29T10:20:14.369Z,4.57
2019-04-29T10:22:41.949Z,2.90
2019-04-29T10:25:09.626Z,1.70
2019-04-29T10:27:37.065Z,5.00
2019-04-29T10:30:06.030Z,2.53
2019-04-29T10:32:33.559Z,3.27
2019-04-29T10:35:03.605Z,3.23
2019-04-29T10:37:32.557Z,4.37
2019-04-29T10:40:22.732Z,3.03
2019-04-29T10:43:15.383Z,3.37
2019-04-29T10:46:07.447Z,3.30
2019-04-29T10:48:51.490Z,2.90
2019-04-29T10:51:19.244Z,3.80
2019-04-29T10:53:50.826Z,6.37
2019-04-29T10:56:16.623Z,3.30
2019-04-29T10:58:44.080Z,5.40
2019-04-29T11:02:05.077Z,3.50
2019-04-29T11:04:31.817Z,2.60
2019-04-29T11:07:13.595Z,1.53
2019-04-29T11:09:50.772Z,6.47
2019-04-29T11:12:18.903Z,1.63
2019-04-29T11:14:46.587Z,2.57
2019-04-29T11:17:16.667Z,4.90
2019-04-29T11:19:44.278Z,4.60
2019-04-29T11:22:14.089Z,3.30
2019-04-29T11:24:50.759Z,3.13
2019-04-29T11:27:22.634Z,4.20
2019-04-29T11:29:50.002Z,2.33
2019-04-29T11:32:29.184Z,2.63
2019-04-29T11:35:08.347Z,2.57
2019-04-29T11:37:35.890Z,3.20
2019-04-29T11:40:04.065Z,2.87
2019-04-29T11:42:35.914Z,2.33
2019-04-29T11:45:03.794Z,1.90
2019-04-29T11:47:31.394Z,2.67
2019-04-29T11:50:11.970Z,1.77
2019-04-29T11:52:40.678Z,2.60
2019-04-29T11:55:08.089Z,2.40
2019-04-29T11:57:45.094Z,7.00
2019-04-29T12:00:28.603Z,2.27
2019-04-29T12:02:59.037Z,2.47
2019-04-29T12:05:32.770Z,2.13
2019-04-29T12:08:03.097Z,3.63
2019-04-29T12:10:29.741Z,3.60
2019-04-29T12:12:59.154Z,2.87
2019-04-29T12:15:45.050Z,3.17
2019-04-29T12:18:38.102Z,2.80
2019-04-29T12:21:19.118Z,3.07
2019-04-29T12:23:47.721Z,4.23
2019-04-29T12:26:17.979Z,2.97
2019-04-29T12:28:45.440Z,2.80
2019-04-29T12:31:34.840Z,2.20
2019-04-29T12:34:26.789Z,4.60
2019-04-29T12:36:56.489Z,4.47
2019-04-29T12:39:44.690Z,2.17
2019-04-29T12:42:29.490Z,2.83
2019-04-29T12:45:19.322Z,2.80
2019-04-29T12:47:40.253Z,2.83
2019-04-29T12:50:08.471Z,2.43
2019-04-29T12:52:36.163Z,2.67
2019-04-29T12:55:19.683Z,5.00
2019-04-29T12:57:33.887Z,5.17
2019-04-29T13:00:01.397Z,2.77
2019-04-29T13:02:47.010Z,3.40
2019-04-29T13:05:57.640Z,5.33
2019-04-29T13:08:32.470Z,2.73
2019-04-29T13:11:02.143Z,2.07
2019-04-29T13:13:29.690Z,3.60
2019-04-29T13:16:31.735Z,4.83
2019-04-29T13:19:12.229Z,1.67
2019-04-29T13:21:39.399Z,2.80
2019-04-29T13:24:17.987Z,3.47
2019-04-29T13:26:40.033Z,2.57
2019-04-29T13:29:06.163Z,3.07
2019-04-29T13:31:38.553Z,4.43
2019-04-29T13:34:22.384Z,2.50
2019-04-29T13:36:34.570Z,4.33
2019-04-29T13:39:02.171Z,2.17
2019-04-29T13:41:29.715Z,5.90
2019-04-29T13:44:05.030Z,4.97
2019-04-29T13:46:53.969Z,3.37
2019-04-29T13:49:27.729Z,2.83
2019-04-29T13:51:55.935Z,3.43
2019-04-29T13:54:23.460Z,4.63
2019-04-29T13:56:56.034Z,3.30
2019-04-29T13:59:28.599Z,2.30
2019-04-29T14:02:07.455Z,2.93
2019-04-29T14:04:38.605Z,2.07
2019-04-29T14:07:06.149Z,4.40
2019-04-29T14:09:35.001Z,2.07
2019-04-29T14:12:42.389Z,7.13
2019-04-29T14:14:32.972Z,3.27
2019-04-29T14:17:17.440Z,1.57
2019-04-29T14:19:45.052Z,2.87
2019-04-29T14:21:59.056Z,2.50
2019-04-29T14:24:26.471Z,4.80
2019-04-29T14:26:53.889Z,2.83
2019-04-29T14:29:23.009Z,3.03
2019-04-29T14:31:59.288Z,4.57
2019-04-29T14:34:36.698Z,1.80
2019-04-29T14:37:19.545Z,2.97
2019-04-29T14:39:37.445Z,5.00
2019-04-29T14:42:09.535Z,3.10
2019-04-29T14:45:02.472Z,2.70
2019-04-29T14:47:49.458Z,4.17
2019-04-29T14:50:20.489Z,1.60
2019-04-29T14:52:49.450Z,2.83
2019-04-29T14:55:19.909Z,2.23
2019-04-29T14:57:46.987Z,2.40
2019-04-29T15:00:29.645Z,4.10
2019-04-29T15:03:00.746Z,2.47
2019-04-29T15:05:26.537Z,2.07
2019-04-29T15:07:54.029Z,2.73
2019-04-29T15:10:21.516Z,2.20
2019-04-29T15:13:11.452Z,4.67
2019-04-29T15:15:45.972Z,5.10
2019-04-29T15:18:45.440Z,3.97
2019-04-29T15:21:12.067Z,4.63
2019-04-29T15:23:39.528Z,3.07
2019-04-29T15:26:07.018Z,6.10
2019-04-29T15:28:50.261Z,3.03
2019-04-29T15:31:18.579Z,5.90
2019-04-29T15:33:46.658Z,5.03
2019-04-29T15:36:14.103Z,4.07
2019-04-29T15:38:41.462Z,3.47
2019-04-29T15:41:08.999Z,3.37
2019-04-29T15:43:47.405Z,2.00
2019-04-29T15:46:06.657Z,4.23
2019-04-29T15:48:35.112Z,3.70
2019-04-29T15:51:03.063Z,2.50
2019-04-29T15:53:33.910Z,3.23
2019-04-29T15:56:08.671Z,2.87
2019-04-29T15:58:30.139Z,1.70
2019-04-29T16:01:11.723Z,2.97
2019-04-29T16:03:27.103Z,3.97
2019-04-29T16:06:21.224Z,2.27
2019-04-29T16:08:51.311Z,1.50
2019-04-29T16:11:37.305Z,2.27
2019-04-29T16:14:10.214Z,2.30
2019-04-29T16:16:35.920Z,3.90
2019-04-29T16:19:08.472Z,4.23
2019-04-29T16:21:39.504Z,3.33
2019-04-29T16:24:24.407Z,4.03
2019-04-29T16:26:32.140Z,1.50
2019-04-29T16:28:59.653Z,2.20
2019-04-29T16:31:27.029Z,2.83
2019-04-29T16:33:55.751Z,2.10
2019-04-29T16:36:23.364Z,1.23
2019-04-29T16:38:51.388Z,3.73
2019-04-29T16:41:38.647Z,2.60
2019-04-29T16:44:07.147Z,1.73
2019-04-29T16:46:37.563Z,2.57
2019-04-29T16:49:03.847Z,1.77
2019-04-29T16:51:31.714Z,3.27
2019-04-29T16:53:59.150Z,3.10
2019-04-29T16:56:26.624Z,2.97
2019-04-29T16:58:54.158Z,1.83
2019-04-29T17:01:22.445Z,2.07
2019-04-29T17:03:50.213Z,2.73
2019-04-29T17:06:17.740Z,2.20
2019-04-29T17:09:23.386Z,4.23
2019-04-29T17:11:56.142Z,2.10
2019-04-29T17:14:20.802Z,3.83
2019-04-29T17:16:48.201Z,1.33
2019-04-29T17:19:15.751Z,2.07
2019-04-29T17:21:43.186Z,4.13
2019-04-29T17:24:10.532Z,3.00
2019-04-29T17:26:57.481Z,1.83
2019-04-29T17:29:49.497Z,1.43
2019-04-29T17:32:43.252Z,3.00
2019-04-29T17:35:05.519Z,3.73
2019-04-29T17:37:33.426Z,6.43
2019-04-29T17:40:00.798Z,4.07
2019-04-29T17:42:30.235Z,2.97
2019-04-29T17:44:57.930Z,3.63
2019-04-29T17:47:53.856Z,3.97
2019-04-29T17:50:46.364Z,1.63
2019-04-29T17:53:17.590Z,3.73
2019-04-29T17:56:00.661Z,4.03
2019-04-29T17:58:43.930Z,6.10
2019-04-29T18:01:29.080Z,2.90
2019-04-29T18:04:21.826Z,2.60
2019-04-29T18:06:58.941Z,4.70
2019-04-29T18:09:52.315Z,3.00
2019-04-29T18:12:21.714Z,3.27
2019-04-29T18:14:49.940Z,4.97
2019-04-29T18:17:27.138Z,3.83
2019-04-29T18:20:00.551Z,5.17
2019-04-29T18:22:56.667Z,6.93
2019-04-29T18:25:40.408Z,4.23
2019-04-29T18:28:07.859Z,6.07
2019-04-29T18:30:38.213Z,3.63
2019-04-29T18:33:05.390Z,12.97
2019-04-29T18:35:32.928Z,7.57
2019-04-29T18:38:00.511Z,7.80
2019-04-29T18:40:30.126Z,10.17
2019-04-29T18:42:57.575Z,6.80
2019-04-29T18:45:25.491Z,8.77
2019-04-29T18:47:54.506Z,6.00
2019-04-29T18:50:21.953Z,5.20
2019-04-29T18:52:49.515Z,7.87
2019-04-29T18:55:16.952Z,6.93
2019-04-29T18:57:44.405Z,7.77
2019-04-29T19:00:19.156Z,4.67
2019-04-29T19:02:47.362Z,7.33
2019-04-29T19:05:17.303Z,11.93
2019-04-29T19:07:55.052Z,8.77
2019-04-29T19:10:18.518Z,7.20
2019-04-29T19:12:46.002Z,8.13
2019-04-29T19:15:15.107Z,6.73
2019-04-29T19:17:42.683Z,7.07
2019-04-29T19:20:16.275Z,7.37
2019-04-29T19:22:44.050Z,6.97
2019-04-29T19:25:12.165Z,9.63
2019-04-29T19:27:40.078Z,6.37
2019-04-29T19:30:08.899Z,5.23
2019-04-29T19:32:36.821Z,9.67
2019-04-29T19:35:04.797Z,13.00
2019-04-29T19:37:36.507Z,10.30
2019-04-29T19:40:01.845Z,8.50
2019-04-29T19:42:35.351Z,8.07
2019-04-29T19:44:58.646Z,7.67
2019-04-29T19:47:28.102Z,5.77
2019-04-29T19:49:55.783Z,5.00
2019-04-29T19:52:30.507Z,5.80
2019-04-29T19:54:52.584Z,5.90
2019-04-29T19:57:20.250Z,8.67
2019-04-29T19:59:51.431Z,6.83
2019-04-29T20:02:17.734Z,6.03
2019-04-29T20:05:17.531Z,6.67
2019-04-29T20:07:49.748Z,9.57
2019-04-29T20:10:15.554Z,11.50
2019-04-29T20:12:46.194Z,12.33
2019-04-29T20:15:16.083Z,16.87
2019-04-29T20:18:15.024Z,14.73
2019-04-29T20:20:47.201Z,9.77
2019-04-29T20:23:20.014Z,13.97
2019-04-29T20:25:48.038Z,5.00
2019-04-29T20:28:18.478Z,5.20
2019-04-29T20:30:45.688Z,6.67
2019-04-29T20:33:13.678Z,7.27
2019-04-29T20:35:47.460Z,6.63
2019-04-29T20:38:10.800Z,6.17
2019-04-29T20:40:42.798Z,6.00
2019-04-29T20:43:08.568Z,6.33
2019-04-29T20:45:36.337Z,11.60
2019-04-29T20:48:06.197Z,7.63
2019-04-29T20:50:35.262Z,6.97
2019-04-29T20:53:08.663Z,12.17
2019-04-29T20:55:38.434Z,18.97
2019-04-29T20:58:06.610Z,12.10
2019-04-29T21:00:37.066Z,9.27
2019-04-29T21:03:09.423Z,10.23
2019-04-29T21:05:46.891Z,10.80
2019-04-29T21:08:13.530Z,7.57
2019-04-29T21:10:33.141Z,10.10
2019-04-29T21:13:20.373Z,7.97
2019-04-29T21:15:55.690Z,8.40
2019-04-29T21:18:25.080Z,8.63
2019-04-29T21:20:52.747Z,6.10
2019-04-29T21:23:20.165Z,4.97
2019-04-29T21:25:47.644Z,6.00
2019-04-29T21:28:15.087Z,5.80
2019-04-29T21:30:42.847Z,3.80
2019-04-29T21:33:17.947Z,5.63
2019-04-29T21:36:02.205Z,6.70
2019-04-29T21:38:48.550Z,6.77
2019-04-29T21:41:22.776Z,5.63
2019-04-29T21:43:53.610Z,6.60
2019-04-29T21:46:25.855Z,5.30
2019-04-29T21:48:49.587Z,7.30
2019-04-29T21:51:17.397Z,3.87
2019-04-29T21:53:45.892Z,4.07
2019-04-29T21:56:13.516Z,6.20
2019-04-29T21:58:40.963Z,4.27
2019-04-29T22:01:09.218Z,5.17
2019-04-29T22:03:36.647Z,3.40
2019-04-29T22:06:04.206Z,3.03
2019-04-29T22:08:31.801Z,3.40
2019-04-29T22:11:04.798Z,3.63
2019-04-29T22:13:30.703Z,4.63
2019-04-29T22:15:58.225Z,5.10
2019-04-29T22:18:25.895Z,3.50
2019-04-29T22:20:53.318Z,3.33
2019-04-29T22:23:20.786Z,6.60
2019-04-29T22:25:48.221Z,3.27
2019-04-29T22:28:19.524Z,4.57
2019-04-29T22:30:45.405Z,5.40
2019-04-29T22:33:15.305Z,5.77
2019-04-29T22:35:44.895Z,4.97
2019-04-29T22:38:16.237Z,4.03
2019-04-29T22:40:42.947Z,6.07
2019-04-29T22:43:19.196Z,3.53
2019-04-29T22:45:46.650Z,4.70
2019-04-29T22:48:19.179Z,5.57
2019-04-29T22:50:43.468Z,4.23
2019-04-29T22:53:10.914Z,4.90
2019-04-29T22:55:39.220Z,3.80
2019-04-29T22:58:09.641Z,3.47
2019-04-29T23:00:36.330Z,7.10
2019-04-29T23:03:04.302Z,5.27
2019-04-29T23:05:31.750Z,2.87
2019-04-29T23:08:00.267Z,4.53
2019-04-29T23:10:28.145Z,3.60
2019-04-29T23:12:57.431Z,4.03
2019-04-29T23:15:26.030Z,5.00
2019-04-29T23:17:53.734Z,4.80
2019-04-29T23:20:40.700Z,3.40
2019-04-29T23:23:15.520Z,5.60
2019-04-29T23:25:52.707Z,4.43
2019-04-29T23:28:22.562Z,5.17
2019-04-29T23:30:52.218Z,3.47
2019-04-29T23:33:22.963Z,5.13
2019-04-29T23:35:48.277Z,4.93
2019-04-29T23:38:15.839Z,4.37
2019-04-29T23:40:43.222Z,5.17
2019-04-29T23:43:10.817Z,3.10
2019-04-29T23:45:38.342Z,4.13
2019-04-29T23:48:05.852Z,7.17
2019-04-29T23:50:35.779Z,3.43
2019-04-29T23:53:02.701Z,5.30
2019-04-29T23:55:30.216Z,4.80
2019-04-29T23:58:19.216Z,3.87
